createdAt,value
2023-10-24T00:00:03.661Z,11.62
2023-10-24T00:02:39.281Z,11.63
2023-10-24T00:05:06.935Z,11.65
2023-10-24T00:07:33.738Z,11.65
2023-10-24T00:10:00.688Z,11.68
2023-10-24T00:12:27.492Z,11.70
2023-10-24T00:14:56.993Z,11.69
2023-10-24T00:17:24.400Z,11.68
2023-10-24T00:19:51.677Z,11.76
2023-10-24T00:22:18.404Z,11.77
2023-10-24T00:24:45.132Z,11.78
2023-10-24T00:27:12.238Z,11.78
2023-10-24T00:29:39.652Z,11.80
2023-10-24T00:32:06.800Z,11.80
2023-10-24T00:34:33.775Z,11.82
2023-10-24T00:37:00.573Z,11.81
2023-10-24T00:39:27.545Z,11.84
2023-10-24T00:41:54.324Z,11.84
2023-10-24T00:44:21.108Z,11.82
2023-10-24T00:46:49.401Z,11.83
2023-10-24T00:49:16.548Z,11.80
2023-10-24T00:51:43.464Z,11.84
2023-10-24T00:54:11.977Z,11.82
2023-10-24T00:56:40.434Z,11.80
2023-10-24T00:59:07.873Z,11.78
2023-10-24T01:01:35.395Z,11.82
2023-10-24T01:04:02.548Z,11.78
2023-10-24T01:06:29.538Z,11.76
2023-10-24T01:08:56.698Z,11.71
2023-10-24T01:11:24.982Z,11.68
2023-10-24T01:13:51.907Z,11.71
2023-10-24T01:16:18.776Z,11.71
2023-10-24T01:18:46.233Z,11.70
2023-10-24T01:21:13.834Z,11.69
2023-10-24T01:23:41.761Z,11.69
2023-10-24T01:26:10.475Z,11.69
2023-10-24T01:28:37.688Z,11.72
2023-10-24T01:31:04.689Z,11.71
2023-10-24T01:33:31.594Z,11.69
2023-10-24T01:35:59.438Z,11.72
2023-10-24T01:38:26.423Z,11.72
2023-10-24T01:40:53.311Z,11.75
2023-10-24T01:43:20.172Z,11.74
2023-10-24T01:45:46.961Z,11.75
2023-10-24T01:48:13.745Z,11.74
2023-10-24T01:50:40.549Z,11.75
2023-10-24T01:53:07.277Z,11.75
2023-10-24T01:55:34.612Z,11.75
2023-10-24T01:58:01.430Z,11.74
2023-10-24T02:00:28.655Z,11.76
2023-10-24T02:02:55.777Z,11.78
2023-10-24T02:05:22.879Z,11.79
2023-10-24T02:07:49.658Z,11.78
2023-10-24T02:10:17.351Z,11.76
2023-10-24T02:12:44.122Z,11.77
2023-10-24T02:15:11.984Z,11.77
2023-10-24T02:17:39.366Z,11.80
2023-10-24T02:20:06.752Z,11.80
2023-10-24T02:22:33.608Z,11.85
2023-10-24T02:25:00.451Z,11.86
2023-10-24T02:27:27.247Z,11.82
2023-10-24T02:29:54.148Z,11.86
2023-10-24T02:32:21.469Z,11.91
2023-10-24T02:34:50.679Z,11.90
2023-10-24T02:37:18.885Z,11.87
2023-10-24T02:39:45.822Z,11.92
2023-10-24T02:42:13.241Z,11.97
2023-10-24T02:44:40.157Z,12.00
2023-10-24T02:47:07.431Z,12.00
2023-10-24T02:49:34.365Z,12.04
2023-10-24T02:52:01.173Z,12.09
2023-10-24T02:54:27.909Z,12.14
2023-10-24T02:56:54.621Z,12.13
2023-10-24T02:59:21.461Z,12.14
2023-10-24T03:01:48.312Z,12.13
2023-10-24T03:04:15.184Z,12.03
2023-10-24T03:06:42.486Z,11.98
2023-10-24T03:09:09.528Z,11.97
2023-10-24T03:11:36.325Z,11.95
2023-10-24T03:14:03.621Z,11.92
2023-10-24T03:16:30.492Z,11.93
2023-10-24T03:18:57.642Z,11.94
2023-10-24T03:21:24.948Z,11.98
2023-10-24T03:23:51.709Z,12.05
2023-10-24T03:26:19.838Z,12.16
2023-10-24T03:28:46.944Z,12.22
2023-10-24T03:31:14.126Z,12.22
2023-10-24T03:33:41.130Z,12.20
2023-10-24T03:36:17.509Z,12.22
2023-10-24T03:38:44.997Z,12.19
2023-10-24T03:41:11.928Z,12.20
2023-10-24T03:43:40.572Z,12.22
2023-10-24T03:46:08.450Z,12.22
2023-10-24T03:48:35.327Z,12.19
2023-10-24T03:51:02.178Z,12.24
2023-10-24T03:53:29.477Z,12.19
2023-10-24T03:55:59.943Z,12.18
2023-10-24T03:58:28.338Z,12.14
2023-10-24T04:00:55.708Z,12.15
2023-10-24T04:03:23.337Z,12.20
2023-10-24T04:05:50.460Z,12.14
2023-10-24T04:08:17.292Z,12.15
2023-10-24T04:10:44.259Z,12.12
2023-10-24T04:13:11.630Z,12.10
2023-10-24T04:15:38.415Z,12.08
2023-10-24T04:18:05.422Z,12.11
2023-10-24T04:20:32.772Z,12.17
2023-10-24T04:23:06.090Z,12.12
2023-10-24T04:25:33.133Z,12.10
2023-10-24T04:28:00.252Z,12.09
2023-10-24T04:30:28.150Z,12.14
2023-10-24T04:32:55.400Z,12.08
2023-10-24T04:35:22.677Z,12.08
2023-10-24T04:37:49.520Z,12.00
2023-10-24T04:40:16.464Z,11.99
2023-10-24T04:42:43.325Z,12.01
2023-10-24T04:45:10.253Z,11.99
2023-10-24T04:47:37.111Z,11.98
2023-10-24T04:50:06.800Z,11.93
2023-10-24T04:52:33.670Z,11.90
2023-10-24T04:55:00.493Z,11.86
2023-10-24T04:57:27.338Z,11.82
2023-10-24T04:59:54.078Z,11.80
2023-10-24T05:02:21.126Z,11.76
2023-10-24T05:04:47.989Z,11.74
2023-10-24T05:07:15.100Z,11.72
2023-10-24T05:09:41.969Z,11.66
2023-10-24T05:12:08.821Z,11.63
2023-10-24T05:14:35.609Z,11.62
2023-10-24T05:17:06.343Z,11.54
2023-10-24T05:19:33.445Z,11.48
2023-10-24T05:22:00.288Z,11.47
2023-10-24T05:24:27.129Z,11.41
2023-10-24T05:26:53.987Z,11.40
2023-10-24T05:29:20.826Z,11.35
2023-10-24T05:31:47.646Z,11.34
2023-10-24T05:34:14.484Z,11.39
2023-10-24T05:36:41.316Z,11.41
2023-10-24T05:39:08.159Z,11.41
2023-10-24T05:41:34.912Z,11.38
2023-10-24T05:44:01.828Z,11.36
2023-10-24T05:46:29.261Z,11.30
2023-10-24T05:48:56.331Z,11.23
2023-10-24T05:51:24.788Z,11.33
2023-10-24T05:53:51.888Z,11.33
2023-10-24T05:56:20.196Z,11.34
2023-10-24T05:58:47.212Z,11.36
2023-10-24T06:01:14.346Z,11.39
2023-10-24T06:03:41.483Z,11.35
2023-10-24T06:06:08.591Z,11.35
2023-10-24T06:08:36.167Z,11.37
2023-10-24T06:11:05.285Z,11.35
2023-10-24T06:13:33.421Z,11.31
2023-10-24T06:16:19.783Z,11.33
2023-10-24T06:18:47.190Z,11.31
2023-10-24T06:21:14.040Z,11.32
2023-10-24T06:23:41.032Z,11.29
2023-10-24T06:26:19.361Z,11.28
2023-10-24T06:28:46.630Z,11.25
2023-10-24T06:31:14.327Z,11.27
2023-10-24T06:33:41.949Z,11.32
2023-10-24T06:36:09.164Z,11.28
2023-10-24T06:38:36.158Z,11.25
2023-10-24T06:41:03.411Z,11.25
2023-10-24T06:43:30.321Z,11.17
2023-10-24T06:45:57.120Z,11.14
2023-10-24T06:48:24.429Z,11.12
2023-10-24T06:50:51.137Z,11.08
2023-10-24T06:53:17.973Z,11.07
2023-10-24T06:55:45.015Z,11.03
2023-10-24T06:58:11.880Z,11.01
2023-10-24T07:00:38.612Z,11.03
2023-10-24T07:03:05.488Z,11.02
2023-10-24T07:05:33.826Z,11.05
2023-10-24T07:08:00.807Z,11.10
2023-10-24T07:10:27.647Z,11.14
2023-10-24T07:12:54.406Z,11.16
2023-10-24T07:15:21.229Z,11.19
2023-10-24T07:17:48.075Z,11.26
2023-10-24T07:20:15.447Z,11.25
2023-10-24T07:22:42.292Z,11.27
2023-10-24T07:25:09.478Z,11.28
2023-10-24T07:27:36.375Z,11.31
2023-10-24T07:30:03.412Z,11.31
2023-10-24T07:32:30.362Z,11.31
2023-10-24T07:35:00.206Z,11.27
2023-10-24T07:37:27.066Z,11.26
2023-10-24T07:39:54.888Z,11.32
2023-10-24T07:42:22.252Z,11.35
2023-10-24T07:44:49.011Z,11.37
2023-10-24T07:47:15.976Z,11.42
2023-10-24T07:49:42.967Z,11.40
2023-10-24T07:52:09.757Z,11.46
2023-10-24T07:54:36.534Z,11.51
2023-10-24T07:57:06.014Z,11.56
2023-10-24T07:59:33.461Z,11.56
2023-10-24T08:02:00.739Z,11.57
2023-10-24T08:04:28.596Z,11.58
2023-10-24T08:06:55.543Z,11.64
2023-10-24T08:09:22.324Z,11.57
2023-10-24T08:11:49.137Z,11.64
2023-10-24T08:14:16.058Z,11.59
2023-10-24T08:16:43.234Z,11.51
2023-10-24T08:19:10.852Z,11.52
2023-10-24T08:21:37.611Z,11.60
2023-10-24T08:24:04.798Z,11.66
2023-10-24T08:26:31.639Z,11.72
2023-10-24T08:28:58.429Z,11.75
2023-10-24T08:31:25.258Z,11.72
2023-10-24T08:33:52.040Z,11.74
2023-10-24T08:36:20.369Z,11.77
2023-10-24T08:38:47.337Z,11.83
2023-10-24T08:41:14.190Z,11.82
2023-10-24T08:43:42.014Z,11.85
2023-10-24T08:46:10.327Z,11.82
2023-10-24T08:48:37.075Z,11.78
2023-10-24T08:51:04.347Z,11.86
2023-10-24T08:53:31.793Z,11.84
2023-10-24T08:55:59.384Z,11.88
2023-10-24T08:58:28.282Z,11.85
2023-10-24T09:00:55.421Z,11.91
2023-10-24T09:03:23.816Z,11.82
2023-10-24T09:05:51.454Z,11.85
2023-10-24T09:08:19.472Z,11.92
2023-10-24T09:10:47.337Z,11.94
2023-10-24T09:13:14.586Z,11.96
2023-10-24T09:15:41.829Z,12.04
2023-10-24T09:18:09.218Z,12.04
2023-10-24T09:20:36.956Z,12.00
2023-10-24T09:23:09.046Z,11.89
2023-10-24T09:25:36.270Z,12.07
2023-10-24T09:28:20.180Z,12.09
2023-10-24T09:30:47.700Z,12.04
2023-10-24T09:33:15.882Z,11.94
2023-10-24T09:35:45.943Z,11.97
2023-10-24T09:38:22.438Z,12.07
2023-10-24T09:40:49.688Z,12.13
2023-10-24T09:43:24.240Z,12.08
2023-10-24T09:45:57.507Z,12.15
2023-10-24T09:48:26.272Z,12.22
2023-10-24T09:50:55.411Z,12.18
2023-10-24T09:53:23.209Z,12.18
2023-10-24T09:55:50.253Z,12.20
2023-10-24T09:58:21.508Z,12.25
2023-10-24T10:00:48.950Z,12.25
2023-10-24T10:03:17.471Z,12.24
2023-10-24T10:05:46.242Z,12.23
2023-10-24T10:08:17.377Z,12.36
2023-10-24T10:10:46.814Z,12.35
2023-10-24T10:13:17.453Z,12.49
2023-10-24T10:16:13.337Z,12.39
2023-10-24T10:18:59.124Z,12.44
2023-10-24T10:21:48.732Z,12.43
2023-10-24T10:24:57.381Z,12.58
2023-10-24T10:27:30.609Z,12.67
2023-10-24T10:30:26.430Z,12.72
2023-10-24T10:33:16.096Z,12.77
2023-10-24T10:35:56.926Z,12.71
2023-10-24T10:38:41.919Z,12.79
2023-10-24T10:41:21.733Z,12.96
2023-10-24T10:44:06.629Z,12.96
2023-10-24T10:46:34.130Z,13.16
2023-10-24T10:49:05.149Z,13.16
2023-10-24T10:51:37.712Z,13.29
2023-10-24T10:54:11.016Z,13.00
2023-10-24T10:56:41.178Z,13.04
2023-10-24T10:59:08.193Z,12.96
2023-10-24T11:01:55.013Z,13.05
2023-10-24T11:04:21.888Z,12.90
2023-10-24T11:06:56.195Z,13.11
2023-10-24T11:09:27.871Z,13.05
2023-10-24T11:12:20.243Z,13.00
2023-10-24T11:15:08.634Z,13.19
2023-10-24T11:17:35.958Z,13.37
2023-10-24T11:20:20.464Z,13.38
2023-10-24T11:22:49.346Z,13.55
2023-10-24T11:25:17.899Z,13.62
2023-10-24T11:27:45.272Z,13.52
2023-10-24T11:30:12.635Z,13.36
2023-10-24T11:32:41.284Z,13.55
2023-10-24T11:35:08.828Z,13.56
2023-10-24T11:37:35.629Z,13.47
2023-10-24T11:40:02.447Z,13.55
2023-10-24T11:42:29.172Z,13.54
2023-10-24T11:44:56.121Z,13.55
2023-10-24T11:47:23.985Z,13.57
2023-10-24T11:49:50.770Z,13.66
2023-10-24T11:52:17.735Z,13.44
2023-10-24T11:54:52.608Z,13.58
2023-10-24T11:57:26.627Z,13.84
2023-10-24T11:59:55.322Z,13.80
2023-10-24T12:02:23.219Z,13.60
2023-10-24T12:04:51.650Z,13.63
2023-10-24T12:07:18.622Z,13.81
2023-10-24T12:09:46.033Z,13.89
2023-10-24T12:12:15.050Z,13.65
2023-10-24T12:14:44.967Z,13.71
2023-10-24T12:17:12.719Z,13.66
2023-10-24T12:19:40.439Z,13.67
2023-10-24T12:22:07.785Z,13.76
2023-10-24T12:24:34.574Z,13.75
2023-10-24T12:27:01.926Z,13.90
2023-10-24T12:29:29.248Z,13.92
2023-10-24T12:31:56.120Z,13.83
2023-10-24T12:34:23.051Z,14.00
2023-10-24T12:36:51.077Z,14.14
2023-10-24T12:39:18.900Z,14.05
2023-10-24T12:41:45.695Z,13.82
2023-10-24T12:44:12.906Z,13.81
2023-10-24T12:46:39.969Z,13.84
2023-10-24T12:49:06.766Z,13.89
2023-10-24T12:51:33.541Z,13.91
2023-10-24T12:54:00.695Z,13.82
2023-10-24T12:56:27.493Z,13.94
2023-10-24T12:58:55.572Z,13.96
2023-10-24T13:01:22.524Z,13.84
2023-10-24T13:03:49.800Z,13.88
2023-10-24T13:06:17.128Z,13.84
2023-10-24T13:08:44.072Z,13.87
2023-10-24T13:11:11.065Z,13.77
2023-10-24T13:13:37.974Z,13.78
2023-10-24T13:16:05.333Z,13.79
2023-10-24T13:18:32.351Z,13.74
2023-10-24T13:20:59.414Z,13.56
2023-10-24T13:23:26.342Z,13.62
2023-10-24T13:25:53.206Z,13.86
2023-10-24T13:28:20.001Z,13.93
2023-10-24T13:30:58.395Z,13.59
2023-10-24T13:33:31.485Z,13.82
2023-10-24T13:36:11.625Z,13.76
2023-10-24T13:38:40.674Z,13.62
2023-10-24T13:41:07.442Z,13.76
2023-10-24T13:43:35.614Z,13.44
2023-10-24T13:46:02.771Z,13.61
2023-10-24T13:48:30.062Z,13.58
2023-10-24T13:50:57.209Z,13.41
2023-10-24T13:53:24.946Z,13.47
2023-10-24T13:55:52.733Z,13.31
2023-10-24T13:58:19.570Z,13.18
2023-10-24T14:00:48.496Z,13.20
2023-10-24T14:03:15.341Z,13.18
2023-10-24T14:05:44.260Z,13.16
2023-10-24T14:08:11.138Z,13.21
2023-10-24T14:10:38.623Z,13.13
2023-10-24T14:13:05.411Z,13.02
2023-10-24T14:15:32.252Z,13.16
2023-10-24T14:17:59.200Z,13.24
2023-10-24T14:20:26.233Z,13.02
2023-10-24T14:22:53.378Z,12.85
2023-10-24T14:25:20.273Z,13.02
2023-10-24T14:27:47.052Z,12.91
2023-10-24T14:30:15.171Z,12.97
2023-10-24T14:32:42.058Z,13.11
2023-10-24T14:35:09.144Z,12.96
2023-10-24T14:37:36.742Z,13.04
2023-10-24T14:40:04.277Z,13.00
2023-10-24T14:42:31.819Z,12.89
2023-10-24T14:44:58.635Z,12.85
2023-10-24T14:47:27.002Z,13.02
2023-10-24T14:49:54.889Z,13.04
2023-10-24T14:52:21.795Z,12.95
2023-10-24T14:54:48.590Z,13.03
2023-10-24T14:57:15.386Z,13.02
2023-10-24T14:59:42.932Z,12.94
2023-10-24T15:02:10.119Z,12.86
2023-10-24T15:04:37.163Z,12.74
2023-10-24T15:07:04.023Z,12.74
2023-10-24T15:09:30.813Z,12.77
2023-10-24T15:11:57.564Z,12.75
2023-10-24T15:14:24.384Z,12.76
2023-10-24T15:16:51.727Z,12.62
2023-10-24T15:19:18.769Z,12.53
2023-10-24T15:21:45.531Z,12.44
2023-10-24T15:24:12.302Z,12.51
2023-10-24T15:26:39.125Z,12.43
2023-10-24T15:29:06.240Z,12.40
2023-10-24T15:31:34.415Z,12.25
2023-10-24T15:34:01.207Z,12.15
2023-10-24T15:36:34.270Z,12.06
2023-10-24T15:39:02.593Z,12.02
2023-10-24T15:41:29.486Z,11.95
2023-10-24T15:43:56.300Z,11.91
2023-10-24T15:46:24.652Z,11.86
2023-10-24T15:48:54.529Z,11.83
2023-10-24T15:51:23.017Z,11.80
2023-10-24T15:53:50.131Z,11.62
2023-10-24T15:56:17.972Z,11.53
2023-10-24T15:58:45.843Z,11.60
2023-10-24T16:01:14.705Z,11.50
2023-10-24T16:03:43.116Z,11.39
2023-10-24T16:06:11.428Z,11.38
2023-10-24T16:08:38.933Z,11.29
2023-10-24T16:11:06.104Z,11.15
2023-10-24T16:13:33.342Z,11.16
2023-10-24T16:16:00.428Z,11.18
2023-10-24T16:18:28.061Z,11.10
2023-10-24T16:20:59.430Z,11.08
2023-10-24T16:23:26.347Z,11.02
2023-10-24T16:26:01.278Z,11.02
2023-10-24T16:28:29.406Z,10.99
2023-10-24T16:30:56.706Z,10.92
2023-10-24T16:33:23.689Z,10.84
2023-10-24T16:35:51.774Z,10.79
2023-10-24T16:38:18.691Z,10.78
2023-10-24T16:40:45.571Z,10.73
2023-10-24T16:43:12.414Z,10.71
2023-10-24T16:45:39.393Z,10.60
2023-10-24T16:48:06.521Z,10.55
2023-10-24T16:50:37.903Z,10.49
2023-10-24T16:53:06.245Z,10.35
2023-10-24T16:55:33.863Z,10.15
2023-10-24T16:58:00.761Z,10.13
2023-10-24T17:00:27.716Z,9.94
2023-10-24T17:02:55.176Z,9.86
2023-10-24T17:05:22.338Z,9.72
2023-10-24T17:07:50.074Z,9.59
2023-10-24T17:10:16.906Z,9.64
2023-10-24T17:12:43.995Z,9.59
2023-10-24T17:15:12.590Z,9.51
2023-10-24T17:17:39.653Z,9.41
2023-10-24T17:20:07.481Z,9.36
2023-10-24T17:22:34.297Z,9.19
2023-10-24T17:25:02.222Z,9.21
2023-10-24T17:27:29.848Z,9.17
2023-10-24T17:29:56.703Z,9.11
2023-10-24T17:32:23.803Z,9.18
2023-10-24T17:34:51.624Z,8.95
2023-10-24T17:37:19.061Z,9.06
2023-10-24T17:39:45.824Z,8.98
2023-10-24T17:42:12.741Z,8.82
2023-10-24T17:44:40.048Z,9.03
2023-10-24T17:47:07.629Z,8.87
2023-10-24T17:49:34.782Z,8.87
2023-10-24T17:52:01.697Z,8.84
2023-10-24T17:54:28.928Z,8.80
2023-10-24T17:56:58.788Z,8.70
2023-10-24T17:59:25.869Z,8.65
2023-10-24T18:01:56.025Z,8.73
2023-10-24T18:04:23.539Z,8.63
2023-10-24T18:06:50.704Z,8.64
2023-10-24T18:09:18.494Z,8.70
2023-10-24T18:11:45.841Z,8.77
2023-10-24T18:14:12.973Z,8.65
2023-10-24T18:16:39.877Z,8.63
2023-10-24T18:19:07.092Z,8.66
2023-10-24T18:21:34.310Z,8.56
2023-10-24T18:24:01.376Z,8.72
2023-10-24T18:26:28.424Z,9.07
2023-10-24T18:28:55.361Z,9.02
2023-10-24T18:31:23.510Z,8.92
2023-10-24T18:33:51.298Z,8.99
2023-10-24T18:36:18.780Z,8.99
2023-10-24T18:38:46.474Z,8.96
2023-10-24T18:41:14.328Z,8.87
2023-10-24T18:43:42.444Z,8.63
2023-10-24T18:46:11.555Z,8.57
2023-10-24T18:48:39.056Z,8.53
2023-10-24T18:51:05.991Z,8.55
2023-10-24T18:53:33.126Z,8.46
2023-10-24T18:56:00.255Z,8.39
2023-10-24T18:58:27.590Z,8.45
2023-10-24T19:00:58.846Z,8.46
2023-10-24T19:03:29.618Z,8.54
2023-10-24T19:05:58.614Z,8.50
2023-10-24T19:08:25.899Z,8.67
2023-10-24T19:10:53.367Z,8.47
2023-10-24T19:13:20.973Z,8.41
2023-10-24T19:15:48.215Z,8.45
2023-10-24T19:18:16.065Z,8.36
2023-10-24T19:20:45.257Z,8.23
2023-10-24T19:23:14.695Z,8.26
2023-10-24T19:25:42.511Z,8.16
2023-10-24T19:28:11.182Z,8.33
2023-10-24T19:30:38.737Z,8.26
2023-10-24T19:33:06.770Z,8.29
2023-10-24T19:35:38.802Z,8.26
2023-10-24T19:38:07.400Z,8.10
2023-10-24T19:40:36.993Z,8.06
2023-10-24T19:43:04.455Z,8.12
2023-10-24T19:45:31.947Z,8.31
2023-10-24T19:48:09.696Z,8.25
2023-10-24T19:50:36.797Z,8.34
2023-10-24T19:53:03.753Z,8.37
2023-10-24T19:55:33.797Z,8.09
2023-10-24T19:58:01.829Z,8.10
2023-10-24T20:00:30.584Z,8.08
2023-10-24T20:02:58.003Z,8.00
2023-10-24T20:05:25.319Z,8.01
2023-10-24T20:07:57.154Z,7.99
2023-10-24T20:12:30.924Z,7.89
2023-10-24T20:13:15.118Z,7.93
2023-10-24T20:15:45.940Z,8.01
2023-10-24T20:18:13.021Z,8.09
2023-10-24T20:20:40.868Z,8.26
2023-10-24T20:23:08.494Z,8.34
2023-10-24T20:25:35.576Z,8.33
2023-10-24T20:28:02.565Z,8.28
2023-10-24T20:30:30.795Z,8.16
2023-10-24T20:32:57.820Z,8.26
2023-10-24T20:35:28.209Z,8.12
2023-10-24T20:37:58.251Z,7.98
2023-10-24T20:40:25.287Z,7.99
2023-10-24T20:42:52.542Z,7.94
2023-10-24T20:45:20.286Z,7.99
2023-10-24T20:47:47.744Z,8.16
2023-10-24T20:50:14.915Z,8.07
2023-10-24T20:52:41.810Z,8.07
2023-10-24T20:55:09.146Z,8.19
2023-10-24T20:57:36.124Z,8.29
2023-10-24T21:00:03.257Z,8.16
2023-10-24T21:02:30.117Z,8.11
2023-10-24T21:04:57.454Z,8.11
2023-10-24T21:07:24.707Z,8.28
2023-10-24T21:09:51.572Z,8.23
2023-10-24T21:12:19.156Z,8.15
2023-10-24T21:14:46.005Z,8.24
2023-10-24T21:17:12.811Z,8.19
2023-10-24T21:19:39.659Z,8.19
2023-10-24T21:22:06.512Z,8.05
2023-10-24T21:24:37.088Z,7.99
2023-10-24T21:27:04.499Z,8.10
2023-10-24T21:29:31.287Z,8.01
2023-10-24T21:31:58.202Z,8.18
2023-10-24T21:34:25.045Z,8.09
2023-10-24T21:36:51.878Z,8.18
2023-10-24T21:39:18.777Z,8.15
2023-10-24T21:41:45.574Z,8.09
2023-10-24T21:44:12.374Z,8.40
2023-10-24T21:46:39.372Z,8.23
2023-10-24T21:49:06.452Z,8.32
2023-10-24T21:51:33.272Z,8.29
2023-10-24T21:54:00.119Z,8.13
2023-10-24T21:56:26.842Z,8.15
2023-10-24T21:58:53.675Z,7.84
2023-10-24T22:01:20.448Z,7.75
2023-10-24T22:03:47.503Z,7.65
2023-10-24T22:06:14.695Z,7.78
2023-10-24T22:08:41.924Z,7.88
2023-10-24T22:11:08.886Z,7.76
2023-10-24T22:13:35.675Z,7.81
2023-10-24T22:16:02.968Z,7.60
2023-10-24T22:18:29.955Z,7.53
2023-10-24T22:20:59.765Z,7.54
2023-10-24T22:23:26.829Z,7.42
2023-10-24T22:25:53.693Z,7.38
2023-10-24T22:28:21.125Z,7.31
2023-10-24T22:30:48.637Z,7.26
2023-10-24T22:33:15.629Z,7.40
2023-10-24T22:35:42.875Z,7.55
2023-10-24T22:38:10.069Z,7.39
2023-10-24T22:40:37.160Z,7.76
2023-10-24T22:43:04.019Z,7.79
2023-10-24T22:45:30.987Z,7.69
2023-10-24T22:47:58.719Z,7.63
2023-10-24T22:50:26.774Z,7.57
2023-10-24T22:52:53.751Z,7.76
2023-10-24T22:55:20.779Z,7.81
2023-10-24T22:57:47.685Z,7.59
2023-10-24T23:00:15.060Z,7.45
2023-10-24T23:02:41.957Z,7.43
2023-10-24T23:05:09.120Z,7.49
2023-10-24T23:07:36.104Z,7.50
2023-10-24T23:10:04.968Z,7.43
2023-10-24T23:12:35.723Z,7.35
2023-10-24T23:15:03.592Z,7.45
2023-10-24T23:17:31.344Z,7.36
2023-10-24T23:19:58.622Z,7.42
2023-10-24T23:22:28.242Z,7.38
2023-10-24T23:24:56.320Z,7.31
2023-10-24T23:27:23.784Z,7.25
2023-10-24T23:29:50.549Z,7.43
2023-10-24T23:32:17.613Z,7.32
2023-10-24T23:34:44.411Z,7.41
2023-10-24T23:37:11.329Z,7.35
2023-10-24T23:39:38.194Z,7.45
2023-10-24T23:42:05.297Z,7.44
2023-10-24T23:44:33.530Z,7.57
2023-10-24T23:47:00.414Z,7.44
2023-10-24T23:49:27.304Z,7.37
2023-10-24T23:51:54.050Z,7.31
2023-10-24T23:54:20.896Z,7.27
2023-10-24T23:56:47.680Z,7.20
2023-10-24T23:59:14.520Z,7.18
